Time;durP1;ratioP1;P1;durP2;ratioP2;P2;SDS_P1;SDS_P2;PMS_P1;PMS_P2;Temp;Humidity;BMP_temperature;BMP_pressure;BME280_temperature;BME280_humidity;BME280_pressure;Samples;Min_cycle;Max_cycle;Signal;HPM_P1;HPM_P2
2024/03/30 00:01:31;;;;;;;3.63;1.30;;;;;;;14.60;77.33;99607.22;6235500;28;20434;-76
2024/03/30 00:04:34;;;;;;;4.82;1.52;;;;;;;14.54;77.87;99601.59;6228169;28;20050;-76
2024/03/30 00:07:44;;;;;;;7.32;1.73;;;;;;;14.55;77.31;99605.91;6244930;28;20057;-76
2024/03/30 00:10:45;;;;;;;4.07;1.33;;;;;;;14.51;76.85;99608.78;6238755;28;20053;-77
2024/03/30 00:13:46;;;;;;;6.70;1.77;;;;;;;14.49;77.12;99604.63;6239752;28;20056;-76
2024/03/30 00:16:47;;;;;;;7.03;1.42;;;;;;;14.52;77.61;99601.75;6233687;28;20061;-76
2024/03/30 00:19:47;;;;;;;7.03;1.42;;;;;;;14.39;77.29;99606.38;6252810;28;20475;-76
2024/03/30 00:22:54;;;;;;;7.30;1.38;;;;;;;14.47;77.14;99593.44;6241773;28;20049;-76
2024/03/30 00:25:56;;;;;;;4.95;1.58;;;;;;;14.46;77.58;99597.03;6238704;28;20045;-76
2024/03/30 00:28:57;;;;;;;2.17;0.87;;;;;;;14.49;77.55;99589.72;6268777;28;20053;-77
2024/03/30 00:31:58;;;;;;;6.85;1.73;;;;;;;14.44;77.37;99583.19;6242222;28;20837;-76
2024/03/30 00:34:58;;;;;;;4.25;1.33;;;;;;;14.35;77.91;99578.72;6231497;28;20050;-76
2024/03/30 00:38:02;;;;;;;5.53;1.40;;;;;;;14.34;77.66;99567.41;6241652;28;20283;-76
2024/03/30 00:41:03;;;;;;;5.47;1.55;;;;;;;14.37;78.08;99561.03;6234977;28;20054;-77
2024/03/30 00:44:05;;;;;;;6.47;1.73;;;;;;;14.25;78.59;99568.19;6232733;28;20057;-76
2024/03/30 00:47:06;;;;;;;7.13;1.38;;;;;;;14.21;78.41;99564.97;6238528;28;20053;-76
2024/03/30 00:50:07;;;;;;;6.43;1.58;;;;;;;14.25;77.63;99555.06;6243865;28;20046;-76
2024/03/30 00:53:07;;;;;;;4.00;1.30;;;;;;;14.26;78.12;99556.72;6247508;28;20057;-76
2024/03/30 00:56:08;;;;;;;2.28;1.08;;;;;;;14.28;77.71;99565.28;6235856;28;20045;-76
2024/03/30 00:59:09;;;;;;;4.82;1.50;;;;;;;14.30;77.67;99558.13;6228235;28;20049;-77
2024/03/30 01:02:12;;;;;;;5.38;1.52;;;;;;;14.29;77.64;99559.09;6242501;28;20087;-76
2024/03/30 01:05:15;;;;;;;9.35;1.50;;;;;;;14.27;77.21;99561.84;6236848;28;20085;-76
2024/03/30 01:08:17;;;;;;;5.82;1.45;;;;;;;14.29;77.22;99559.91;6246743;28;20056;-76
2024/03/30 01:11:17;;;;;;;3.83;1.23;;;;;;;14.35;77.15;99552.47;6249826;28;20057;-76
2024/03/30 01:14:21;;;;;;;3.28;1.20;;;;;;;14.39;76.64;99554.72;6245303;28;20052;-76
2024/03/30 01:17:23;;;;;;;10.65;1.70;;;;;;;14.22;77.50;99553.50;6230957;28;20057;-76
2024/03/30 01:20:24;;;;;;;3.97;1.40;;;;;;;14.22;77.11;99552.69;6234711;28;20145;-76
2024/03/30 01:23:25;;;;;;;5.33;1.50;;;;;;;14.21;77.14;99551.84;6231918;28;20049;-76
2024/03/30 01:26:28;;;;;;;4.53;1.30;;;;;;;14.26;77.18;99554.91;6228128;28;20296;-76
2024/03/30 01:29:31;;;;;;;3.08;1.38;;;;;;;14.16;77.39;99551.41;6262741;28;20049;-76
2024/03/30 01:32:36;;;;;;;6.80;1.50;;;;;;;14.22;77.62;99550.06;6248479;28;20049;-76
2024/03/30 01:35:37;;;;;;;7.47;1.52;;;;;;;14.15;77.52;99548.94;6241988;28;20084;-77
2024/03/30 01:38:38;;;;;;;5.47;1.45;;;;;;;14.10;77.90;99544.03;6238393;28;20092;-76
2024/03/30 01:41:39;;;;;;;3.05;1.50;;;;;;;14.09;77.07;99543.22;6248076;28;20049;-76
2024/03/30 01:44:40;;;;;;;4.55;1.35;;;;;;;14.06;77.07;99540.88;6236002;28;20415;-77
2024/03/30 01:47:40;;;;;;;4.00;1.25;;;;;;;14.09;77.46;99542.41;6239530;28;20116;-76
2024/03/30 01:50:43;;;;;;;11.65;1.75;;;;;;;14.04;77.39;99553.28;6248634;28;20042;-76
2024/03/30 01:53:45;;;;;;;2.40;1.30;;;;;;;14.04;77.50;99548.03;6247587;28;20057;-77
2024/03/30 01:56:50;;;;;;;5.25;1.23;;;;;;;14.09;76.85;99548.47;6248693;28;20041;-76
2024/03/30 01:59:51;;;;;;;7.35;1.70;;;;;;;14.15;76.74;99546.31;6248516;28;20103;-76
2024/03/30 02:02:55;;;;;;;5.25;1.33;;;;;;;14.08;75.99;99544.19;6240488;28;20059;-77
2024/03/30 02:05:59;;;;;;;2.15;0.80;;;;;;;14.09;76.32;99542.41;6237283;28;20511;-76
2024/03/30 02:09:03;;;;;;;2.53;1.25;;;;;;;14.15;75.87;99543.69;6234242;28;20068;-76
2024/03/30 02:12:05;;;;;;;3.20;1.42;;;;;;;14.08;75.58;99549.44;6223851;28;20439;-77
2024/03/30 02:15:07;;;;;;;7.00;1.23;;;;;;;14.13;75.35;99545.59;6246085;28;20046;-77
2024/03/30 02:18:08;;;;;;;5.28;1.50;;;;;;;14.13;75.48;99553.47;6248096;28;20049;-76
2024/03/30 02:21:09;;;;;;;6.53;1.75;;;;;;;14.07;75.21;99557.44;6241080;28;20409;-77
2024/03/30 02:24:10;;;;;;;7.28;1.88;;;;;;;14.14;74.92;99560.38;6243998;28;20639;-77
2024/03/30 02:27:11;;;;;;;6.05;2.17;;;;;;;14.17;75.17;99554.88;6246180;28;20053;-77
2024/03/30 02:30:21;;;;;;;6.18;1.27;;;;;;;14.12;75.17;99552.63;6246354;28;20108;-77
2024/03/30 02:33:22;;;;;;;3.63;1.40;;;;;;;14.11;74.65;99548.34;6233451;28;20696;-76
2024/03/30 02:36:23;;;;;;;2.28;1.42;;;;;;;14.16;74.77;99550.56;6243476;28;20038;-76
2024/03/30 02:39:24;;;;;;;5.03;1.33;;;;;;;14.06;74.52;99555.75;6247433;28;20057;-76
2024/03/30 02:42:27;;;;;;;7.15;1.42;;;;;;;14.10;74.98;99551.91;6233249;28;20489;-76
2024/03/30 02:45:28;;;;;;;5.15;1.55;;;;;;;14.14;74.83;99550.69;6232635;28;20102;-77
2024/03/30 02:48:32;;;;;;;2.90;1.45;;;;;;;14.10;74.28;99550.16;6231787;28;20057;-77
2024/03/30 02:51:32;;;;;;;5.85;1.33;;;;;;;14.07;74.67;99546.94;6243340;28;20140;-77
2024/03/30 02:54:33;;;;;;;9.65;1.67;;;;;;;14.06;74.43;99561.00;6228351;28;20482;-76
2024/03/30 02:57:34;;;;;;;6.20;1.52;;;;;;;14.04;74.30;99561.16;6254214;28;20049;-76
2024/03/30 03:00:37;;;;;;;5.30;1.48;;;;;;;13.95;75.10;99558.44;6257143;28;20064;-76
2024/03/30 03:03:38;;;;;;;8.45;1.40;;;;;;;13.96;75.08;99554.84;6233006;28;20474;-77
2024/03/30 03:06:39;;;;;;;3.58;1.20;;;;;;;13.86;75.33;99553.00;6240819;28;20052;-77
2024/03/30 03:09:40;;;;;;;4.35;1.27;;;;;;;13.86;75.54;99554.81;6233646;28;20441;-77
2024/03/30 03:12:41;;;;;;;3.58;1.50;;;;;;;13.87;75.65;99546.78;6237824;28;20054;-76
2024/03/30 03:15:42;;;;;;;9.95;1.30;;;;;;;13.82;75.57;99551.59;6240075;28;20112;-76
2024/03/30 03:18:45;;;;;;;6.63;1.33;;;;;;;13.83;75.41;99555.03;6223582;28;20045;-77
2024/03/30 03:21:46;;;;;;;6.57;1.25;;;;;;;13.80;76.07;99550.06;6244214;28;20541;-76
2024/03/30 03:24:47;;;;;;;3.97;1.13;;;;;;;13.79;75.35;99556.25;6235494;28;20465;-76
2024/03/30 03:27:50;;;;;;;3.65;1.27;;;;;;;13.84;75.59;99561.97;6245927;28;20057;-77
2024/03/30 03:30:52;;;;;;;6.05;1.60;;;;;;;13.77;76.04;99555.53;6226942;28;20054;-76
2024/03/30 03:33:52;;;;;;;5.85;1.52;;;;;;;13.74;76.10;99563.69;6224414;28;20049;-77
2024/03/30 03:36:53;;;;;;;2.67;1.13;;;;;;;13.75;75.19;99560.91;6253600;28;20052;-77
2024/03/30 03:39:54;;;;;;;6.70;1.10;;;;;;;13.75;75.88;99560.91;6228339;28;20494;-77
2024/03/30 03:42:55;;;;;;;7.80;1.27;;;;;;;13.75;75.70;99557.47;6253980;28;20053;-76
2024/03/30 03:45:57;;;;;;;3.70;1.27;;;;;;;13.77;75.97;99558.16;6242091;28;20038;-77
2024/03/30 03:49:00;;;;;;;3.53;1.27;;;;;;;13.65;75.62;99560.84;6246022;28;20432;-77
2024/03/30 03:52:01;;;;;;;4.95;1.40;;;;;;;13.70;75.54;99566.53;6235060;28;20093;-76
2024/03/30 03:55:04;;;;;;;4.80;1.17;;;;;;;13.68;75.17;99568.44;6256945;28;20468;-77
2024/03/30 03:58:05;;;;;;;2.00;1.10;;;;;;;13.69;75.46;99572.75;6240079;28;20508;-76
2024/03/30 04:01:07;;;;;;;3.13;1.30;;;;;;;13.65;74.98;99575.72;6239044;28;20077;-76
2024/03/30 04:04:08;;;;;;;5.85;1.40;;;;;;;13.65;75.44;99568.72;6240509;28;21019;-76
2024/03/30 04:07:08;;;;;;;6.32;1.38;;;;;;;13.66;75.71;99575.59;6237080;28;20057;-76
2024/03/30 04:10:11;;;;;;;1.30;0.93;;;;;;;13.73;74.64;99577.72;6237194;28;20111;-76
2024/03/30 04:13:12;;;;;;;5.50;1.52;;;;;;;13.75;73.91;99576.63;6232373;28;20054;-76
2024/03/30 04:16:13;;;;;;;4.20;1.38;;;;;;;13.77;74.36;99568.66;6240464;28;20050;-77
2024/03/30 04:19:17;;;;;;;5.43;1.55;;;;;;;13.80;74.52;99577.13;6245420;28;20053;-77
2024/03/30 04:22:20;;;;;;;3.08;1.38;;;;;;;13.73;74.35;99578.56;6223610;28;20099;-76
2024/03/30 04:25:21;;;;;;;2.28;1.13;;;;;;;13.78;74.00;99570.34;6243609;28;20045;-76
2024/03/30 04:28:22;;;;;;;2.83;1.27;;;;;;;13.76;74.27;99577.50;6256331;28;20140;-76
2024/03/30 04:31:23;;;;;;;5.45;1.10;;;;;;;13.86;73.59;99581.84;6254845;28;20053;-76
2024/03/30 04:34:24;;;;;;;4.85;1.38;;;;;;;13.84;73.05;99575.91;6265617;28;20166;-76
2024/03/30 04:37:27;;;;;;;3.50;1.10;;;;;;;13.92;73.27;99583.16;6253721;28;20496;-76
2024/03/30 04:40:28;;;;;;;2.15;1.30;;;;;;;13.86;73.97;99579.22;6249177;28;20045;-76
2024/03/30 04:43:31;;;;;;;3.13;1.08;;;;;;;13.88;74.01;99586.97;6248388;28;20144;-76
2024/03/30 04:46:32;;;;;;;3.60;1.38;;;;;;;13.85;73.86;99585.41;6264227;28;20056;-76
2024/03/30 04:49:33;;;;;;;4.60;1.20;;;;;;;13.83;73.87;99591.75;6267419;28;20052;-76
2024/03/30 04:52:34;;;;;;;3.72;1.15;;;;;;;13.92;74.08;99596.25;6249340;28;20068;-77
2024/03/30 04:55:35;;;;;;;4.25;1.52;;;;;;;14.02;74.10;99593.69;6248479;28;20048;-77
2024/03/30 04:58:36;;;;;;;4.93;1.98;;;;;;;14.02;73.50;99597.16;6248432;28;20057;-76
2024/03/30 05:01:37;;;;;;;4.40;0.90;;;;;;;14.01;72.88;99602.53;6263172;28;20409;-76
2024/03/30 05:04:41;;;;;;;5.45;1.85;;;;;;;14.09;73.50;99606.19;6270725;28;20037;-76
2024/03/30 05:07:42;;;;;;;5.35;1.35;;;;;;;14.10;72.46;99596.50;6262841;28;20046;-76
2024/03/30 05:10:43;;;;;;;5.97;1.50;;;;;;;14.27;72.65;99603.00;6259579;28;20052;-76
2024/03/30 05:13:44;;;;;;;7.57;1.55;;;;;;;14.23;72.95;99612.09;6272472;28;20052;-76
2024/03/30 05:16:45;;;;;;;2.63;0.95;;;;;;;14.30;72.98;99607.97;6242900;28;20042;-76
2024/03/30 05:23:08;;;;;;;6.00;1.38;;;;;;;14.41;72.35;99613.19;6242488;28;20061;-76
2024/03/30 05:26:09;;;;;;;6.63;1.40;;;;;;;14.54;72.11;99617.34;6235433;28;20070;-76
2024/03/30 05:29:10;;;;;;;3.65;1.33;;;;;;;14.46;72.17;99613.59;6242311;28;20053;-76
2024/03/30 05:32:11;;;;;;;7.28;1.50;;;;;;;14.56;72.17;99618.09;6251580;28;20111;-77
2024/03/30 05:35:14;;;;;;;3.28;1.20;;;;;;;14.65;72.15;99619.97;6252852;28;20045;-77
2024/03/30 05:38:16;;;;;;;3.47;1.70;;;;;;;14.62;72.26;99626.31;6260644;28;20506;-77
2024/03/30 05:41:17;;;;;;;4.13;1.17;;;;;;;14.51;72.57;99631.59;6257229;28;20068;-77
2024/03/30 05:44:18;;;;;;;2.40;1.23;;;;;;;14.64;72.11;99628.78;6249694;28;20498;-77
2024/03/30 05:47:18;;;;;;;4.13;1.40;;;;;;;14.70;71.63;99630.88;6259678;28;20282;-77
2024/03/30 05:50:21;;;;;;;6.43;1.88;;;;;;;14.68;72.43;99636.28;6263203;28;20045;-77
2024/03/30 05:53:24;;;;;;;5.63;1.42;;;;;;;14.78;71.69;99635.50;6247919;28;20045;-77
2024/03/30 05:56:25;;;;;;;3.47;1.35;;;;;;;14.79;72.00;99630.13;6268793;28;20045;-77
2024/03/30 05:59:26;;;;;;;5.38;1.23;;;;;;;14.90;71.28;99637.06;6266262;28;20045;-67
2024/03/30 06:02:27;;;;;;;3.75;1.50;;;;;;;15.06;71.43;99633.97;6251400;28;20132;-77
2024/03/30 06:05:28;;;;;;;5.13;1.33;;;;;;;15.04;70.90;99635.91;6261656;28;20386;-77
2024/03/30 06:08:29;;;;;;;3.80;1.40;;;;;;;15.04;71.39;99639.34;6263950;28;20104;-77
2024/03/30 06:11:30;;;;;;;4.20;1.25;;;;;;;15.24;70.76;99639.44;6245953;28;20080;-77
2024/03/30 06:14:33;;;;;;;4.50;1.50;;;;;;;15.26;70.75;99637.50;6246244;28;20494;-77
2024/03/30 06:17:38;;;;;;;4.97;1.50;;;;;;;15.37;70.37;99634.75;6247151;28;20051;-67
2024/03/30 06:20:38;;;;;;;3.67;1.40;;;;;;;15.38;70.27;99633.81;6245742;28;20103;-67
2024/03/30 06:23:39;;;;;;;6.03;1.70;;;;;;;15.53;70.09;99642.13;6247085;28;20496;-77
2024/03/30 06:26:41;;;;;;;3.78;1.45;;;;;;;15.52;70.27;99640.44;6246881;28;20527;-77
2024/03/30 06:29:41;;;;;;;4.32;1.50;;;;;;;15.51;70.20;99647.53;6245731;28;20064;-77
2024/03/30 06:32:43;;;;;;;6.97;1.50;;;;;;;15.49;70.10;99648.63;6247164;28;20457;-77
2024/03/30 06:35:52;;;;;;;3.17;1.35;;;;;;;15.45;70.50;99647.22;6264191;28;20068;-77
2024/03/30 06:38:53;;;;;;;4.50;1.60;;;;;;;15.44;70.62;99645.56;6271436;28;20501;-68
2024/03/30 06:45:14;;;;;;;3.00;1.42;;;;;;;15.46;70.68;99652.38;6247940;28;20045;-77
2024/03/30 06:48:15;;;;;;;4.68;1.63;;;;;;;15.32;70.86;99663.25;6246386;28;20088;-77
2024/03/30 06:51:16;;;;;;;5.30;1.40;;;;;;;15.48;70.89;99660.94;6245997;28;20057;-68
2024/03/30 06:54:17;;;;;;;7.43;1.70;;;;;;;15.54;70.66;99671.88;6247377;28;20146;-77
2024/03/30 06:57:20;;;;;;;5.27;1.77;;;;;;;15.62;70.90;99672.88;6264465;28;20195;-68
2024/03/30 07:00:21;;;;;;;3.42;1.10;;;;;;;15.80;70.57;99675.69;6272303;28;20056;-67
2024/03/30 07:03:22;;;;;;;3.65;1.40;;;;;;;15.86;70.01;99677.78;6269399;28;20539;-68
2024/03/30 07:06:23;;;;;;;6.03;1.67;;;;;;;15.99;70.17;99667.00;6246380;28;20051;-77
2024/03/30 07:09:24;;;;;;;1.63;1.25;;;;;;;16.15;69.99;99678.78;6245988;28;20049;-77
2024/03/30 07:12:25;;;;;;;3.17;1.50;;;;;;;16.38;68.92;99680.16;6247556;28;20085;-77
2024/03/30 07:15:26;;;;;;;2.45;1.00;;;;;;;16.22;69.41;99682.50;6247023;28;20053;-68
2024/03/30 07:18:27;;;;;;;6.57;1.30;;;;;;;16.55;69.18;99686.50;6245675;28;20053;-68
2024/03/30 07:21:28;;;;;;;7.65;1.52;;;;;;;16.69;68.45;99696.59;6246578;28;20060;-77
2024/03/30 07:24:29;;;;;;;5.95;1.27;;;;;;;16.98;67.30;99684.34;6245198;28;20085;-78
2024/03/30 07:27:30;;;;;;;7.50;1.55;;;;;;;17.21;66.45;99692.72;6245534;28;20045;-77
2024/03/30 07:30:40;;;;;;;3.28;1.33;;;;;;;17.42;66.09;99688.06;6246486;28;20140;-77
2024/03/30 07:33:41;;;;;;;3.67;1.38;;;;;;;17.69;65.82;99689.84;6245825;28;20140;-77
2024/03/30 07:36:42;;;;;;;3.40;1.88;;;;;;;17.49;65.60;99701.50;6246362;28;20054;-68
2024/03/30 07:39:43;;;;;;;5.10;1.25;;;;;;;17.74;65.36;99678.84;6246452;28;20049;-69
2024/03/30 07:42:44;;;;;;;5.07;1.58;;;;;;;17.91;64.54;99685.16;6245338;28;20059;-68
2024/03/30 07:45:45;;;;;;;3.22;1.23;;;;;;;17.97;63.40;99684.56;6245407;28;20045;-68
2024/03/30 07:48:46;;;;;;;7.45;1.77;;;;;;;18.10;63.95;99689.47;6246345;28;20057;-68
2024/03/30 07:51:47;;;;;;;11.27;1.40;;;;;;;18.22;62.95;99683.00;6246268;28;20053;-68
2024/03/30 07:54:48;;;;;;;5.65;2.05;;;;;;;18.35;62.99;99682.59;6246414;28;20049;-77
2024/03/30 07:57:49;;;;;;;6.43;1.52;;;;;;;18.59;63.39;99691.69;6230670;28;20536;-77
2024/03/30 08:00:50;;;;;;;2.60;1.33;;;;;;;18.75;61.17;99685.69;6244145;28;20057;-68
2024/03/30 08:03:51;;;;;;;4.45;1.63;;;;;;;18.62;60.79;99686.91;6244939;28;20421;-68
2024/03/30 08:06:52;;;;;;;11.18;2.13;;;;;;;18.82;60.76;99682.31;6245675;28;20155;-68
2024/03/30 08:09:53;;;;;;;4.63;1.83;;;;;;;18.92;60.18;99680.38;6250007;28;20077;-68
2024/03/30 08:12:56;;;;;;;11.63;1.35;;;;;;;18.98;58.69;99670.97;6247926;28;20053;-68
2024/03/30 08:15:57;;;;;;;5.15;1.50;;;;;;;19.17;58.13;99671.72;6274674;28;20091;-77
2024/03/30 08:18:58;;;;;;;6.65;1.60;;;;;;;19.73;58.46;99673.78;6258695;28;20474;-77
2024/03/30 08:21:59;;;;;;;3.23;1.57;;;;;;;19.98;58.10;99675.66;6246011;28;20466;-78
2024/03/30 08:25:00;;;;;;;7.30;1.77;;;;;;;19.96;57.02;99673.16;6249892;28;20305;-77
2024/03/30 08:28:02;;;;;;;4.75;1.52;;;;;;;20.38;56.17;99674.00;6254998;28;20080;-75
2024/03/30 08:31:03;;;;;;;4.13;1.08;;;;;;;20.34;54.74;99668.22;6243693;28;20489;-76
2024/03/30 08:34:04;;;;;;;4.30;1.63;;;;;;;20.64;54.66;99673.88;6250279;28;20045;-75
2024/03/30 08:37:05;;;;;;;6.57;1.45;;;;;;;20.82;53.89;99671.03;6250702;28;20041;-76
2024/03/30 08:40:06;;;;;;;4.50;1.25;;;;;;;21.03;53.86;99675.75;6242271;28;20085;-76
2024/03/30 08:43:07;;;;;;;5.07;1.50;;;;;;;21.16;52.46;99676.03;6243331;28;20486;-76
2024/03/30 08:46:08;;;;;;;4.32;1.42;;;;;;;21.09;52.23;99680.38;6244831;28;20115;-75
2024/03/30 08:49:09;;;;;;;7.97;1.37;;;;;;;21.40;52.17;99672.47;6244007;28;20096;-76
2024/03/30 08:52:10;;;;;;;5.80;1.60;;;;;;;21.68;51.40;99672.88;6242729;28;20493;-68
2024/03/30 08:55:11;;;;;;;7.72;1.40;;;;;;;21.85;49.95;99660.31;6243275;28;20337;-68
2024/03/30 08:58:12;;;;;;;2.30;1.20;;;;;;;21.93;49.70;99659.44;6242879;28;20106;-67
2024/03/30 09:01:13;;;;;;;2.73;1.27;;;;;;;22.01;48.54;99667.34;6244802;28;20378;-67
2024/03/30 09:04:14;;;;;;;3.60;1.50;;;;;;;22.14;48.26;99667.56;6242926;28;20060;-67
2024/03/30 09:07:20;;;;;;;8.43;1.53;;;;;;;22.06;48.99;99662.31;6244354;28;20049;-67
2024/03/30 09:10:21;;;;;;;7.15;1.58;;;;;;;22.42;49.09;99653.72;6242765;28;20072;-67
2024/03/30 09:13:25;;;;;;;6.05;1.27;;;;;;;22.62;48.71;99655.88;6246022;28;20060;-67
2024/03/30 09:16:26;;;;;;;6.22;1.73;;;;;;;22.68;46.59;99655.16;6247355;28;20133;-67
2024/03/30 09:19:27;;;;;;;5.50;1.67;;;;;;;22.89;46.68;99665.06;6248607;28;20056;-75
2024/03/30 09:22:27;;;;;;;9.40;1.40;;;;;;;23.00;45.50;99656.66;6247320;28;20188;-76
2024/03/30 09:25:28;;;;;;;4.53;1.30;;;;;;;23.18;45.37;99650.13;6248406;28;20053;-76
2024/03/30 09:28:29;;;;;;;5.10;1.83;;;;;;;23.28;45.25;99645.34;6248286;28;20045;-76
2024/03/30 09:31:30;;;;;;;7.60;1.60;;;;;;;23.46;43.54;99648.44;6246972;28;20227;-76
2024/03/30 09:34:31;;;;;;;8.50;1.52;;;;;;;23.42;42.62;99644.50;6248205;28;20365;-76
2024/03/30 09:37:32;;;;;;;3.93;1.17;;;;;;;23.88;43.33;99646.03;6247888;28;20053;-76
2024/03/30 09:40:33;;;;;;;6.43;1.57;;;;;;;24.18;42.95;99648.59;6248096;28;20054;-76
2024/03/30 09:43:37;;;;;;;5.83;1.50;;;;;;;24.21;41.59;99640.19;6248119;28;20049;-75
2024/03/30 09:46:39;;;;;;;8.75;1.67;;;;;;;23.98;40.98;99638.56;6247879;28;20081;-67
2024/03/30 09:49:42;;;;;;;12.90;2.45;;;;;;;24.06;41.96;99640.28;6246636;28;20140;-67
2024/03/30 09:52:44;;;;;;;15.75;1.85;;;;;;;24.22;40.78;99633.88;6246328;28;20061;-67
2024/03/30 09:55:47;;;;;;;12.85;2.45;;;;;;;24.36;41.82;99640.09;6246355;28;20490;-68
2024/03/30 09:58:48;;;;;;;7.90;1.60;;;;;;;24.87;42.43;99646.03;6247181;28;20049;-67
2024/03/30 10:01:50;;;;;;;6.97;2.08;;;;;;;24.92;40.81;99635.59;6245887;28;20510;-67
2024/03/30 10:04:52;;;;;;;8.02;2.50;;;;;;;24.97;41.18;99634.19;6248586;28;20128;-67
2024/03/30 10:08:02;;;;;;;;;;;;;;;25.06;40.24;99625.81;6246747;28;20156;-67
2024/03/30 10:11:13;;;;;;;9.23;1.80;;;;;;;25.16;39.63;99622.75;6247147;28;19925;-67
2024/03/30 10:14:22;;;;;;;5.60;1.27;;;;;;;25.43;40.13;99614.88;6246486;28;20042;-68
2024/03/30 10:17:25;;;;;;;5.63;1.20;;;;;;;25.80;38.30;99604.66;6279278;28;20087;-67
2024/03/30 10:20:28;;;;;;;6.13;1.27;;;;;;;26.16;38.84;99606.19;6247046;28;20103;-67
2024/03/30 10:23:29;;;;;;;6.85;1.35;;;;;;;26.39;37.67;99603.88;6245386;28;20137;-68
2024/03/30 10:26:36;;;;;;;11.85;1.73;;;;;;;26.59;38.12;99601.22;6245924;28;20042;-68
2024/03/30 10:29:37;;;;;;;9.32;1.50;;;;;;;26.58;38.45;99594.22;6245705;28;20526;-68
2024/03/30 10:32:40;;;;;;;;;;;;;;;26.84;37.48;99600.53;6245941;28;20421;-68
2024/03/30 10:35:45;;;;;;;6.22;1.50;;;;;;;26.71;37.23;99602.22;6246767;28;19921;-68
2024/03/30 10:38:45;;;;;;;8.23;1.60;;;;;;;26.91;37.29;99591.47;6246861;28;20357;-68
2024/03/30 10:41:52;;;;;;;11.50;1.50;;;;;;;26.81;36.23;99596.44;6246015;28;20108;-67
2024/03/30 10:44:53;;;;;;;5.32;1.50;;;;;;;27.18;36.28;99602.06;6245930;28;20338;-68
2024/03/30 10:47:55;;;;;;;3.17;0.98;;;;;;;27.15;35.04;99597.13;6246474;28;20185;-68
2024/03/30 10:50:57;;;;;;;4.43;1.08;;;;;;;27.18;35.39;99596.72;6246279;28;20049;-68
2024/03/30 10:54:05;;;;;;;9.85;1.55;;;;;;;26.87;35.34;99590.25;6244732;28;20461;-68
2024/03/30 10:57:06;;;;;;;3.53;1.00;;;;;;;27.39;35.72;99586.75;6246068;28;20603;-67
2024/03/30 11:00:10;;;;;;;5.53;1.58;;;;;;;27.42;35.07;99580.94;6244926;28;20418;-67
2024/03/30 11:03:13;;;;;;;3.17;1.25;;;;;;;27.69;34.43;99573.56;6244708;28;20512;-67
2024/03/30 11:06:17;;;;;;;4.57;1.35;;;;;;;27.41;34.55;99566.72;6244896;28;20045;-67
2024/03/30 11:09:22;;;;;;;6.05;1.73;;;;;;;27.36;34.19;99565.72;6244279;28;20049;-68
2024/03/30 11:12:23;;;;;;;5.38;1.60;;;;;;;27.66;34.77;99560.59;6244596;28;20049;-68
2024/03/30 11:15:28;;;;;;;7.68;1.13;;;;;;;27.29;33.96;99550.53;6241918;28;20042;-69
2024/03/30 11:18:38;;;;;;;4.03;1.50;;;;;;;27.39;34.49;99554.59;6243939;28;20799;-68
2024/03/30 11:21:47;;;;;;;7.10;1.63;;;;;;;27.51;34.83;99551.00;6265452;28;20096;-68
2024/03/30 11:24:57;;;;;;;7.30;1.20;;;;;;;27.65;35.24;99548.22;6243905;28;20049;-69
2024/03/30 11:28:05;;;;;;;2.83;1.20;;;;;;;27.39;35.03;99549.25;6242557;28;20085;-69
2024/03/30 11:31:25;;;;;;;6.32;1.40;;;;;;;27.35;35.32;99545.34;6244827;28;20458;-69
2024/03/30 11:34:53;;;;;;;4.10;1.42;;;;;;;27.31;35.31;99553.00;6243582;28;20049;-69
2024/03/30 11:37:58;;;;;;;6.72;1.00;;;;;;;27.56;36.17;99546.84;6244469;28;20095;-69
2024/03/30 11:41:03;;;;;;;3.10;1.20;;;;;;;27.66;35.45;99539.97;6244270;28;20049;-68
2024/03/30 11:44:15;;;;;;;7.28;1.30;;;;;;;27.65;36.58;99535.63;6244923;28;20049;-68
2024/03/30 11:47:17;;;;;;;2.75;1.25;;;;;;;27.83;35.69;99534.06;6244338;28;20049;-68
2024/03/30 11:50:18;;;;;;;3.80;1.30;;;;;;;27.70;35.63;99532.31;6244391;28;20045;-68
2024/03/30 11:53:19;;;;;;;4.13;1.30;;;;;;;27.48;35.50;99527.31;6244248;28;20057;-68
2024/03/30 11:56:20;;;;;;;3.63;1.25;;;;;;;27.68;35.57;99524.50;6244476;28;20051;-69
2024/03/30 11:59:21;;;;;;;5.82;1.63;;;;;;;27.60;34.79;99532.81;6244469;28;20103;-68
2024/03/30 12:02:25;;;;;;;5.25;1.83;;;;;;;27.26;34.92;99526.03;6243113;28;20060;-68
2024/03/30 12:05:29;;;;;;;4.43;1.15;;;;;;;27.37;34.79;99514.63;6244325;28;20045;-68
2024/03/30 12:08:30;;;;;;;10.35;1.38;;;;;;;27.61;34.51;99512.19;6244232;28;20058;-69
2024/03/30 12:11:31;;;;;;;7.22;1.17;;;;;;;27.35;34.98;99508.66;6242810;28;20046;-70
2024/03/30 12:14:38;;;;;;;8.13;1.63;;;;;;;27.51;35.09;99504.66;6244286;28;20061;-69
2024/03/30 12:17:40;;;;;;;4.80;1.10;;;;;;;27.28;36.15;99497.16;6244086;28;20061;-70
2024/03/30 12:20:46;;;;;;;5.65;1.35;;;;;;;27.09;35.61;99498.91;6242392;28;20056;-69
2024/03/30 12:23:51;;;;;;;9.73;1.42;;;;;;;27.29;35.60;99496.16;6242561;28;20049;-69
2024/03/30 12:26:55;;;;;;;7.55;1.40;;;;;;;27.30;35.81;99495.94;6242936;28;20445;-69
2024/03/30 12:29:56;;;;;;;4.20;1.42;;;;;;;27.31;36.98;99483.34;6253345;28;20115;-69
2024/03/30 12:32:59;;;;;;;10.00;1.23;;;;;;;27.32;36.30;99483.16;6246995;28;20140;-70
2024/03/30 12:36:00;;;;;;;9.73;1.52;;;;;;;27.25;36.79;99478.88;6253911;28;20056;-69
2024/03/30 12:39:01;;;;;;;2.00;0.82;;;;;;;27.03;35.50;99478.34;6260113;28;20056;-69
2024/03/30 12:42:02;;;;;;;7.50;1.30;;;;;;;27.07;35.99;99479.56;6263137;28;20053;-69
2024/03/30 12:45:03;;;;;;;7.03;1.40;;;;;;;26.82;36.77;99471.47;6247910;28;20191;-68
2024/03/30 12:48:05;;;;;;;3.58;1.20;;;;;;;26.48;36.68;99471.59;6266592;28;20060;-69
2024/03/30 12:51:06;;;;;;;6.57;1.85;;;;;;;26.34;36.87;99460.09;6255253;28;20412;-69
2024/03/30 12:54:09;;;;;;;4.40;1.20;;;;;;;26.59;37.18;99466.63;6249843;28;20092;-70
2024/03/30 12:57:11;;;;;;;3.60;1.08;;;;;;;26.98;36.79;99452.22;6244154;28;20042;-69
2024/03/30 13:00:16;;;;;;;7.37;1.60;;;;;;;26.59;36.12;99456.75;6242848;28;20096;-69
2024/03/30 13:03:18;;;;;;;7.05;1.63;;;;;;;26.93;35.62;99446.69;6247782;28;20271;-69
2024/03/30 13:06:19;;;;;;;4.28;1.25;;;;;;;26.93;35.90;99439.50;6250645;28;20419;-68
2024/03/30 13:09:22;;;;;;;2.20;1.00;;;;;;;26.56;36.67;99435.72;6248918;28;20050;-69
2024/03/30 13:12:23;;;;;;;7.20;1.20;;;;;;;26.51;36.75;99438.25;6247401;28;20081;-69
2024/03/30 13:15:24;;;;;;;;;;;;;;;26.44;36.57;99440.09;6265390;28;20077;-69
2024/03/30 13:18:25;;;;;;;6.30;1.15;;;;;;;26.29;36.87;99440.38;6249714;28;19920;-70
2024/03/30 13:21:27;;;;;;;2.28;0.93;;;;;;;26.27;37.10;99424.53;6248632;28;20054;-69
2024/03/30 13:24:28;;;;;;;6.05;1.40;;;;;;;26.54;37.73;99429.78;6248339;28;20049;-70
2024/03/30 13:27:28;;;;;;;7.23;1.40;;;;;;;26.69;36.30;99435.72;6248457;28;20046;-69
2024/03/30 13:30:31;;;;;;;2.47;0.97;;;;;;;26.82;37.19;99426.78;6251385;28;20094;-69
2024/03/30 13:33:34;;;;;;;2.70;1.08;;;;;;;26.71;37.38;99427.47;6264843;28;20298;-69
2024/03/30 13:36:35;;;;;;;4.22;1.20;;;;;;;26.50;37.21;99428.56;6256941;28;20059;-69
2024/03/30 13:39:36;;;;;;;4.32;1.38;;;;;;;26.65;36.90;99426.47;6243645;28;20053;-69
2024/03/30 13:42:37;;;;;;;8.80;1.60;;;;;;;26.53;37.18;99422.78;6245612;28;20053;-69
2024/03/30 13:45:39;;;;;;;7.15;1.20;;;;;;;26.77;38.10;99415.06;6248189;28;20478;-69
2024/03/30 13:48:39;;;;;;;4.03;1.40;;;;;;;26.74;36.73;99403.78;6246091;28;20056;-70
2024/03/30 13:51:40;;;;;;;4.20;1.00;;;;;;;26.61;36.42;99400.38;6248582;28;20456;-68
2024/03/30 13:54:43;;;;;;;6.82;1.02;;;;;;;26.55;36.16;99402.00;6245818;28;20057;-69
2024/03/30 13:57:48;;;;;;;4.65;0.80;;;;;;;26.66;35.67;99396.00;6246771;28;20525;-69
2024/03/30 14:00:49;;;;;;;8.32;1.10;;;;;;;26.61;35.36;99392.34;6244965;28;20049;-69
2024/03/30 14:03:50;;;;;;;5.65;1.10;;;;;;;26.42;35.85;99394.88;6245249;28;20166;-69
2024/03/30 14:06:51;;;;;;;10.25;1.20;;;;;;;26.63;35.19;99390.28;6245936;28;20081;-70
2024/03/30 14:09:51;;;;;;;5.67;1.20;;;;;;;26.61;35.66;99387.81;6246010;28;20049;-69
2024/03/30 14:12:52;;;;;;;1.40;0.90;;;;;;;26.65;36.08;99380.19;6248053;28;20802;-68
2024/03/30 14:15:53;;;;;;;11.20;1.67;;;;;;;26.33;35.89;99388.09;6265357;28;20049;-69
2024/03/30 14:18:54;;;;;;;7.27;1.00;;;;;;;26.13;35.83;99386.34;6252708;28;20390;-68
2024/03/30 14:21:55;;;;;;;3.50;0.80;;;;;;;26.03;35.39;99380.63;6246332;28;20049;-69
2024/03/30 14:24:55;;;;;;;4.13;0.80;;;;;;;26.10;35.21;99378.72;6253749;28;20049;-69